Terminal Aerodrome Forecast
Issued by NWS

Home | Current Version | Previous Version | Text Only | Print | Product List | Glossary On
Versions: 1 2 3 4 5 6 7 8 9 10 11 12 13 14 15 16
000
FTUS44 KEPZ 011724
TAFDMN
TAF
KDMN 011724Z 0118/0218 25004KT P6SM SKC
     FM012100 27012G20KT P6SM FEW120
     FM020000 30007KT P6SM SKC
     FM021700 25011G20KT P6SM SKC=

USA.gov is the U.S. government's official web portal to all federal, state and local government web resources and services.